createdAt,value
2022-10-13T00:03:54.923Z,95.7
2022-10-13T00:13:54.930Z,95.9
2022-10-13T00:23:54.969Z,95.9
2022-10-13T00:43:55.040Z,96
2022-10-13T00:53:54.998Z,96.2
2022-10-13T01:03:55.058Z,96.1
2022-10-13T01:13:55.073Z,96.2
2022-10-13T01:23:55.110Z,96.1
2022-10-13T01:33:55.105Z,95.9
2022-10-13T02:03:55.201Z,95.8
2022-10-13T02:13:55.206Z,95.8
2022-10-13T02:23:55.214Z,95.8
2022-10-13T02:33:55.393Z,95.8
2022-10-13T02:43:55.300Z,95.8
2022-10-13T02:53:55.281Z,95.8
2022-10-13T03:03:55.310Z,95.7
2022-10-13T03:13:55.349Z,95.7
2022-10-13T03:23:55.351Z,95.6
2022-10-13T03:33:55.367Z,95.6
2022-10-13T03:43:55.393Z,95.6
2022-10-13T04:53:55.548Z,95.1
2022-10-13T05:33:55.629Z,94.7
2022-10-13T06:03:55.778Z,94.5
2022-10-13T06:13:55.708Z,94.5
2022-10-13T06:33:55.764Z,94.3
2022-10-13T06:43:55.760Z,94.2
2022-10-13T06:53:55.821Z,94.1
2022-10-13T07:03:55.792Z,94
2022-10-13T07:13:55.893Z,93.8
2022-10-13T07:23:55.848Z,93.5
2022-10-13T07:33:55.870Z,93
2022-10-13T07:43:55.894Z,92.8
2022-10-13T08:03:55.954Z,92.1
2022-10-13T08:23:55.985Z,91.7
2022-10-13T09:13:56.089Z,88.1
2022-10-13T09:23:56.085Z,87.1
2022-10-13T09:33:56.125Z,86.9
2022-10-13T09:43:56.106Z,86.6
2022-10-13T10:23:56.219Z,86.1
2022-10-13T10:33:56.222Z,85.4
2022-10-13T10:43:56.254Z,85
2022-10-13T10:53:56.247Z,84.5
2022-10-13T11:03:56.308Z,84
2022-10-13T11:13:56.241Z,83.7
2022-10-13T11:24:01.093Z,82.3
2022-10-13T11:33:56.307Z,80.8
2022-10-13T11:43:56.341Z,79.9
2022-10-13T11:53:56.338Z,80.3
2022-10-13T12:03:56.379Z,80.3
2022-10-13T12:13:56.356Z,80.6
2022-10-13T12:23:56.559Z,80.4
2022-10-13T12:33:56.429Z,79.5
2022-10-13T12:53:56.476Z,79.3
2022-10-13T13:03:56.496Z,79.3
2022-10-13T13:23:56.517Z,79.2
2022-10-13T13:33:56.519Z,80.4
2022-10-13T13:43:56.537Z,82.2
2022-10-13T13:53:56.548Z,82.4
2022-10-13T14:03:56.596Z,83.2
2022-10-13T14:13:56.574Z,83.5
2022-10-13T14:23:56.600Z,84.9
2022-10-13T14:33:56.617Z,85.4
2022-10-13T14:43:56.678Z,86.7
2022-10-13T14:53:56.680Z,87.7
2022-10-13T15:03:56.737Z,88.9
2022-10-13T15:13:56.699Z,89.6
2022-10-13T15:23:56.727Z,90.6
2022-10-13T15:53:56.791Z,91.7
2022-10-13T16:33:56.863Z,92.9
2022-10-13T16:54:01.323Z,92.9
2022-10-13T17:13:56.935Z,92.8
2022-10-13T17:33:56.959Z,92.7
2022-10-13T17:53:56.992Z,92.8
2022-10-13T18:13:57.048Z,93.1
2022-10-13T18:53:57.111Z,92.7
2022-10-13T19:23:57.161Z,91.3
2022-10-13T19:43:57.215Z,90.8
2022-10-13T19:53:57.188Z,90.8
2022-10-13T20:03:57.249Z,90.1
2022-10-13T20:13:57.241Z,89.6
2022-10-13T20:23:57.276Z,89.6
2022-10-13T20:33:57.259Z,89.7
2022-10-13T20:43:57.316Z,89.5
2022-10-13T20:53:57.303Z,89.5
2022-10-13T21:03:57.363Z,89.5
2022-10-13T21:13:57.332Z,89.2
2022-10-13T21:23:57.387Z,89.3
2022-10-13T21:33:57.386Z,89.3
2022-10-13T21:43:57.436Z,89.6
2022-10-13T21:53:57.401Z,89.8
2022-10-13T22:03:57.463Z,89.8
2022-10-13T22:13:57.449Z,90
2022-10-13T22:23:57.511Z,90.3
2022-10-13T22:33:57.489Z,91.1
2022-10-13T22:43:57.534Z,91.8
